ACA148 CYUL-EGLL
Flight info
| Callsign | ACA148 |
|---|---|
| Flight time | N/A |
| Altitude | 39000 |
| Route | ANTEG DCT OBRON DCT MOBUB DCT EBMOS DCT CEFOU N517A ALLRY/M082F400 NATT SOVED/N0467F390 DCT LUTOV DCT NIPIT DCT MCM DCT BOFUM Q37 MALUD Q38 NUGRA |
| Aircraft | A333/H-SDE3GHIJ2J3J5M1RVWXY/LB2D1 |
Departure
| Time | 2026-05-03 22:39 |
|---|---|
| Airport | Montreal / Pierre Elliott Trudeau International Airport (CYUL) |
Arrival
| Time | N/A |
|---|---|
| Airport | London Heathrow Airport (EGLL) |
| Time | Latitude | Longitude | Altitude | Speed | Heading |
|---|---|---|---|---|---|
| 2026-05-03 22:27 | 45.45978 | -73.75635 | 108 ft | 0 kts | 178° |
| 2026-05-03 22:30 | 45.45997 | -73.75636 | 106 ft | 3 kts | 178° |
| 2026-05-03 22:30 | 45.46016 | -73.75641 | 107 ft | 3 kts | 138° |
| 2026-05-03 22:31 | 45.46030 | -73.75661 | 106 ft | 3 kts | 110° |
| 2026-05-03 22:31 | 45.46032 | -73.75664 | 107 ft | 0 kts | 102° |
| 2026-05-03 22:31 | 45.46031 | -73.75662 | 106 ft | 1 kts | 102° |
| 2026-05-03 22:32 | 45.46030 | -73.75640 | 108 ft | 4 kts | 94° |
| 2026-05-03 22:32 | 45.46030 | -73.75600 | 108 ft | 4 kts | 90° |
| 2026-05-03 22:32 | 45.46032 | -73.75554 | 108 ft | 6 kts | 82° |
| 2026-05-03 22:32 | 45.46051 | -73.75464 | 108 ft | 13 kts | 69° |
| 2026-05-03 22:33 | 45.46115 | -73.75353 | 106 ft | 15 kts | 60° |
| 2026-05-03 22:33 | 45.46140 | -73.75201 | 105 ft | 16 kts | 87° |
| 2026-05-03 22:33 | 45.46146 | -73.75049 | 107 ft | 15 kts | 87° |
| 2026-05-03 22:33 | 45.46151 | -73.74903 | 108 ft | 15 kts | 87° |
| 2026-05-03 22:34 | 45.46157 | -73.74726 | 107 ft | 21 kts | 88° |
| 2026-05-03 22:34 | 45.46133 | -73.74515 | 107 ft | 22 kts | 97° |
| 2026-05-03 22:34 | 45.46133 | -73.74298 | 107 ft | 22 kts | 89° |
| 2026-05-03 22:34 | 45.46146 | -73.74082 | 108 ft | 21 kts | 71° |
| 2026-05-03 22:35 | 45.46239 | -73.73926 | 109 ft | 20 kts | 45° |
| 2026-05-03 22:35 | 45.46340 | -73.73787 | 108 ft | 20 kts | 43° |
| 2026-05-03 22:35 | 45.46441 | -73.73660 | 110 ft | 19 kts | 41° |
| 2026-05-03 22:35 | 45.46540 | -73.73538 | 110 ft | 19 kts | 40° |
| 2026-05-03 22:36 | 45.46631 | -73.73416 | 110 ft | 18 kts | 45° |
| 2026-05-03 22:36 | 45.46730 | -73.73281 | 112 ft | 22 kts | 43° |
| 2026-05-03 22:36 | 45.46848 | -73.73124 | 115 ft | 24 kts | 43° |
| 2026-05-03 22:36 | 45.46979 | -73.72958 | 116 ft | 26 kts | 41° |
| 2026-05-03 22:37 | 45.47115 | -73.72778 | 117 ft | 28 kts | 42° |
| 2026-05-03 22:37 | 45.47262 | -73.72584 | 117 ft | 30 kts | 43° |
| 2026-05-03 22:37 | 45.47415 | -73.72382 | 118 ft | 30 kts | 43° |
| 2026-05-03 22:37 | 45.47568 | -73.72184 | 120 ft | 29 kts | 43° |
| 2026-05-03 22:38 | 45.47713 | -73.71993 | 122 ft | 26 kts | 43° |
| 2026-05-03 22:38 | 45.47799 | -73.71799 | 124 ft | 22 kts | 101° |
| 2026-05-03 22:38 | 45.47700 | -73.71659 | 125 ft | 19 kts | 170° |
| 2026-05-03 22:38 | 45.47591 | -73.71750 | 126 ft | 24 kts | 221° |
| 2026-05-03 22:39 | 45.47306 | -73.72126 | 118 ft | 92 kts | 222° |
| 2026-05-03 22:39 | 45.46660 | -73.72976 | 137 ft | 158 kts | 227° |
| 2026-05-03 22:39 | 45.45786 | -73.74148 | 682 ft | 187 kts | 227° |
| 2026-05-03 22:39 | 45.44851 | -73.75578 | 1559 ft | 201 kts | 244° |
| 2026-05-03 22:40 | 45.44627 | -73.77580 | 2481 ft | 223 kts | 281° |
| 2026-05-03 22:40 | 45.45417 | -73.79671 | 2878 ft | 262 kts | 314° |
| 2026-05-03 22:40 | 45.47097 | -73.80969 | 2980 ft | 295 kts | 345° |
| 2026-05-03 22:40 | 45.49155 | -73.80879 | 2999 ft | 301 kts | 15° |
| 2026-05-03 22:41 | 45.50826 | -73.79265 | 3507 ft | 288 kts | 49° |
| 2026-05-03 22:41 | 45.51624 | -73.76718 | 4317 ft | 282 kts | 76° |
| 2026-05-03 22:41 | 45.51926 | -73.73949 | 5202 ft | 283 kts | 82° |
| 2026-05-03 22:41 | 45.52218 | -73.71171 | 6069 ft | 283 kts | 78° |
| 2026-05-03 22:42 | 45.52912 | -73.68572 | 6860 ft | 282 kts | 52° |
| 2026-05-03 22:42 | 45.54249 | -73.66544 | 7645 ft | 280 kts | 35° |
| 2026-05-03 22:42 | 45.55861 | -73.64983 | 8450 ft | 280 kts | 26° |
| 2026-05-03 22:42 | 45.57583 | -73.63666 | 9259 ft | 281 kts | 22° |
| 2026-05-03 22:43 | 45.59345 | -73.62423 | 10029 ft | 284 kts | 21° |
| 2026-05-03 22:43 | 45.61156 | -73.61138 | 10451 ft | 299 kts | 22° |
| 2026-05-03 22:43 | 45.63066 | -73.59721 | 10702 ft | 319 kts | 24° |
| 2026-05-03 22:43 | 45.65050 | -73.58175 | 10968 ft | 338 kts | 25° |
| 2026-05-03 22:44 | 45.67157 | -73.56471 | 11225 ft | 357 kts | 26° |
| 2026-05-03 22:44 | 45.69337 | -73.54662 | 11672 ft | 367 kts | 26° |
| 2026-05-03 22:44 | 45.71559 | -73.52795 | 12328 ft | 371 kts | 26° |
| 2026-05-03 22:44 | 45.73802 | -73.50902 | 13017 ft | 375 kts | 26° |
| 2026-05-03 22:45 | 45.76056 | -73.49004 | 13678 ft | 378 kts | 26° |
| 2026-05-03 22:45 | 45.78340 | -73.47087 | 14267 ft | 382 kts | 26° |
| 2026-05-03 22:45 | 45.80648 | -73.45152 | 14850 ft | 385 kts | 26° |
| 2026-05-03 22:45 | 45.82944 | -73.43230 | 15422 ft | 389 kts | 26° |
| 2026-05-03 22:46 | 45.85288 | -73.41265 | 15990 ft | 392 kts | 27° |
| 2026-05-03 22:46 | 45.87515 | -73.38925 | 16544 ft | 400 kts | 37° |
| 2026-05-03 22:46 | 45.89568 | -73.36176 | 17141 ft | 405 kts | 41° |
| 2026-05-03 22:46 | 45.91521 | -73.33229 | 17680 ft | 410 kts | 44° |
| 2026-05-03 22:47 | 45.93444 | -73.30171 | 18225 ft | 413 kts | 45° |
| 2026-05-03 22:47 | 45.95366 | -73.27080 | 18713 ft | 416 kts | 45° |
| 2026-05-03 22:47 | 45.97301 | -73.23989 | 19224 ft | 418 kts | 44° |
| 2026-05-03 22:47 | 45.99242 | -73.20926 | 19677 ft | 420 kts | 44° |
| 2026-05-03 22:48 | 46.01229 | -73.17826 | 20137 ft | 423 kts | 43° |
| 2026-05-03 22:48 | 46.03241 | -73.14710 | 20606 ft | 425 kts | 43° |
| 2026-05-03 22:48 | 46.05263 | -73.11590 | 21063 ft | 428 kts | 43° |
| 2026-05-03 22:48 | 46.07300 | -73.08452 | 21518 ft | 431 kts | 43° |
| 2026-05-03 22:49 | 46.09358 | -73.05278 | 21954 ft | 433 kts | 43° |
| 2026-05-03 22:49 | 46.11427 | -73.02081 | 22396 ft | 436 kts | 44° |
| 2026-05-03 22:49 | 46.13504 | -72.98866 | 22807 ft | 439 kts | 44° |
| 2026-05-03 22:49 | 46.15591 | -72.95622 | 23224 ft | 443 kts | 45° |
| 2026-05-03 22:50 | 46.17503 | -72.92181 | 23602 ft | 448 kts | 52° |
| 2026-05-03 22:50 | 46.19251 | -72.88419 | 23961 ft | 451 kts | 54° |
| 2026-05-03 22:50 | 46.20929 | -72.84576 | 24315 ft | 454 kts | 56° |
| 2026-05-03 22:50 | 46.22578 | -72.80652 | 24669 ft | 457 kts | 56° |
| 2026-05-03 22:51 | 46.24206 | -72.76703 | 25022 ft | 460 kts | 56° |
| 2026-05-03 22:51 | 46.25838 | -72.72721 | 25369 ft | 462 kts | 56° |
| 2026-05-03 22:51 | 46.27482 | -72.68709 | 25724 ft | 464 kts | 57° |
| 2026-05-03 22:51 | 46.29136 | -72.64683 | 26070 ft | 467 kts | 57° |
| 2026-05-03 22:52 | 46.30782 | -72.60681 | 26379 ft | 469 kts | 57° |
| 2026-05-03 22:52 | 46.32455 | -72.56617 | 26733 ft | 472 kts | 57° |
| 2026-05-03 22:52 | 46.34140 | -72.52524 | 27062 ft | 474 kts | 57° |
| 2026-05-03 22:52 | 46.35833 | -72.48411 | 27429 ft | 476 kts | 57° |
| 2026-05-03 22:53 | 46.37537 | -72.44262 | 27755 ft | 478 kts | 57° |
| 2026-05-03 22:53 | 46.39244 | -72.40100 | 28061 ft | 481 kts | 57° |
| 2026-05-03 22:53 | 46.40938 | -72.35963 | 28366 ft | 484 kts | 57° |